sensor_id;sensor_type;location;lat;lon;timestamp;P1;durP1;ratioP1;P2;durP2;ratioP2
20245;SDS011;10281;54.406;18.556;2023-06-22T00:00:56;10.13;;;6.60;;
20245;SDS011;10281;54.406;18.556;2023-06-22T00:03:26;7.90;;;6.50;;
20245;SDS011;10281;54.406;18.556;2023-06-22T00:05:53;9.43;;;6.70;;
20245;SDS011;10281;54.406;18.556;2023-06-22T00:08:20;8.20;;;6.30;;
20245;SDS011;10281;54.406;18.556;2023-06-22T00:10:46;8.83;;;6.70;;
20245;SDS011;10281;54.406;18.556;2023-06-22T00:13:13;11.03;;;6.73;;
20245;SDS011;10281;54.406;18.556;2023-06-22T00:15:41;7.50;;;6.70;;
20245;SDS011;10281;54.406;18.556;2023-06-22T00:18:08;9.60;;;6.70;;
20245;SDS011;10281;54.406;18.556;2023-06-22T00:20:36;9.43;;;6.83;;
20245;SDS011;10281;54.406;18.556;2023-06-22T00:23:04;12.17;;;7.40;;
20245;SDS011;10281;54.406;18.556;2023-06-22T00:25:34;7.37;;;6.67;;
20245;SDS011;10281;54.406;18.556;2023-06-22T00:28:02;9.47;;;6.93;;
20245;SDS011;10281;54.406;18.556;2023-06-22T00:30:30;7.60;;;6.77;;
20245;SDS011;10281;54.406;18.556;2023-06-22T00:32:58;11.23;;;7.17;;
20245;SDS011;10281;54.406;18.556;2023-06-22T00:35:25;7.90;;;7.20;;
20245;SDS011;10281;54.406;18.556;2023-06-22T00:37:56;8.07;;;7.20;;
20245;SDS011;10281;54.406;18.556;2023-06-22T00:40:28;7.13;;;6.43;;
20245;SDS011;10281;54.406;18.556;2023-06-22T00:42:57;8.80;;;6.87;;
20245;SDS011;10281;54.406;18.556;2023-06-22T00:45:24;10.53;;;7.07;;
20245;SDS011;10281;54.406;18.556;2023-06-22T00:47:51;8.57;;;7.40;;
20245;SDS011;10281;54.406;18.556;2023-06-22T00:50:20;8.93;;;6.87;;
20245;SDS011;10281;54.406;18.556;2023-06-22T00:52:51;10.13;;;6.93;;
20245;SDS011;10281;54.406;18.556;2023-06-22T00:55:20;10.40;;;7.20;;
20245;SDS011;10281;54.406;18.556;2023-06-22T00:57:48;7.70;;;6.70;;
20245;SDS011;10281;54.406;18.556;2023-06-22T01:00:15;9.13;;;7.37;;
20245;SDS011;10281;54.406;18.556;2023-06-22T01:02:45;7.57;;;6.53;;
20245;SDS011;10281;54.406;18.556;2023-06-22T01:05:13;9.03;;;6.97;;
20245;SDS011;10281;54.406;18.556;2023-06-22T01:07:44;10.27;;;7.60;;
20245;SDS011;10281;54.406;18.556;2023-06-22T01:10:38;9.30;;;7.07;;
20245;SDS011;10281;54.406;18.556;2023-06-22T01:13:06;8.90;;;7.40;;
20245;SDS011;10281;54.406;18.556;2023-06-22T01:15:39;8.10;;;7.20;;
20245;SDS011;10281;54.406;18.556;2023-06-22T01:18:08;8.23;;;7.33;;
20245;SDS011;10281;54.406;18.556;2023-06-22T01:20:37;8.43;;;7.13;;
20245;SDS011;10281;54.406;18.556;2023-06-22T01:26:08;8.97;;;7.37;;
20245;SDS011;10281;54.406;18.556;2023-06-22T01:28:39;9.17;;;7.17;;
20245;SDS011;10281;54.406;18.556;2023-06-22T01:31:10;10.10;;;7.37;;
20245;SDS011;10281;54.406;18.556;2023-06-22T01:33:41;7.93;;;7.13;;
20245;SDS011;10281;54.406;18.556;2023-06-22T01:36:10;8.03;;;7.17;;
20245;SDS011;10281;54.406;18.556;2023-06-22T01:38:37;9.00;;;7.90;;
20245;SDS011;10281;54.406;18.556;2023-06-22T01:41:05;8.83;;;7.30;;
20245;SDS011;10281;54.406;18.556;2023-06-22T01:43:31;11.83;;;8.13;;
20245;SDS011;10281;54.406;18.556;2023-06-22T01:46:00;12.07;;;7.97;;
20245;SDS011;10281;54.406;18.556;2023-06-22T01:48:28;9.53;;;7.60;;
20245;SDS011;10281;54.406;18.556;2023-06-22T01:50:55;9.37;;;7.67;;
20245;SDS011;10281;54.406;18.556;2023-06-22T01:53:24;10.67;;;8.30;;
20245;SDS011;10281;54.406;18.556;2023-06-22T01:55:51;8.60;;;7.27;;
20245;SDS011;10281;54.406;18.556;2023-06-22T01:58:18;10.20;;;8.10;;
20245;SDS011;10281;54.406;18.556;2023-06-22T02:00:51;13.30;;;7.63;;
20245;SDS011;10281;54.406;18.556;2023-06-22T02:03:23;8.73;;;7.70;;
20245;SDS011;10281;54.406;18.556;2023-06-22T02:05:55;9.10;;;8.03;;
20245;SDS011;10281;54.406;18.556;2023-06-22T02:08:25;10.53;;;8.33;;
20245;SDS011;10281;54.406;18.556;2023-06-22T02:10:53;12.47;;;8.17;;
20245;SDS011;10281;54.406;18.556;2023-06-22T02:13:23;11.70;;;8.10;;
20245;SDS011;10281;54.406;18.556;2023-06-22T02:15:50;12.57;;;8.43;;
20245;SDS011;10281;54.406;18.556;2023-06-22T02:18:17;12.23;;;8.60;;
20245;SDS011;10281;54.406;18.556;2023-06-22T02:20:45;13.00;;;8.47;;
20245;SDS011;10281;54.406;18.556;2023-06-22T02:23:12;13.60;;;9.03;;
20245;SDS011;10281;54.406;18.556;2023-06-22T02:25:39;10.93;;;8.27;;
20245;SDS011;10281;54.406;18.556;2023-06-22T02:28:05;12.50;;;10.00;;
20245;SDS011;10281;54.406;18.556;2023-06-22T02:30:32;13.07;;;10.17;;
20245;SDS011;10281;54.406;18.556;2023-06-22T02:32:59;10.87;;;9.23;;
20245;SDS011;10281;54.406;18.556;2023-06-22T02:35:26;14.33;;;9.33;;
20245;SDS011;10281;54.406;18.556;2023-06-22T02:37:55;12.50;;;9.27;;
20245;SDS011;10281;54.406;18.556;2023-06-22T02:40:22;12.63;;;9.47;;
20245;SDS011;10281;54.406;18.556;2023-06-22T02:42:48;13.37;;;9.97;;
20245;SDS011;10281;54.406;18.556;2023-06-22T02:45:15;15.73;;;10.47;;
20245;SDS011;10281;54.406;18.556;2023-06-22T02:47:42;15.60;;;9.53;;
20245;SDS011;10281;54.406;18.556;2023-06-22T02:50:08;13.10;;;10.77;;
20245;SDS011;10281;54.406;18.556;2023-06-22T02:52:35;12.80;;;10.77;;
20245;SDS011;10281;54.406;18.556;2023-06-22T02:55:04;14.90;;;10.37;;
20245;SDS011;10281;54.406;18.556;2023-06-22T02:57:33;13.03;;;10.33;;
20245;SDS011;10281;54.406;18.556;2023-06-22T02:59:59;16.73;;;10.67;;
20245;SDS011;10281;54.406;18.556;2023-06-22T03:02:28;15.50;;;11.20;;
20245;SDS011;10281;54.406;18.556;2023-06-22T03:04:55;15.37;;;11.10;;
20245;SDS011;10281;54.406;18.556;2023-06-22T03:07:21;15.50;;;10.73;;
20245;SDS011;10281;54.406;18.556;2023-06-22T03:09:48;16.20;;;11.57;;
20245;SDS011;10281;54.406;18.556;2023-06-22T03:12:15;16.53;;;11.77;;
20245;SDS011;10281;54.406;18.556;2023-06-22T03:14:41;13.93;;;11.10;;
20245;SDS011;10281;54.406;18.556;2023-06-22T03:17:08;14.57;;;10.97;;
20245;SDS011;10281;54.406;18.556;2023-06-22T03:19:37;13.20;;;11.17;;
20245;SDS011;10281;54.406;18.556;2023-06-22T03:22:03;13.10;;;10.70;;
20245;SDS011;10281;54.406;18.556;2023-06-22T03:24:30;13.07;;;10.80;;
20245;SDS011;10281;54.406;18.556;2023-06-22T03:26:57;14.70;;;10.40;;
20245;SDS011;10281;54.406;18.556;2023-06-22T03:29:23;13.70;;;10.33;;
20245;SDS011;10281;54.406;18.556;2023-06-22T03:31:51;10.73;;;9.63;;
20245;SDS011;10281;54.406;18.556;2023-06-22T03:34:17;16.13;;;10.23;;
20245;SDS011;10281;54.406;18.556;2023-06-22T03:36:44;13.83;;;10.97;;
20245;SDS011;10281;54.406;18.556;2023-06-22T03:39:11;11.93;;;10.07;;
20245;SDS011;10281;54.406;18.556;2023-06-22T03:41:37;12.20;;;9.40;;
20245;SDS011;10281;54.406;18.556;2023-06-22T03:44:04;10.57;;;9.47;;
20245;SDS011;10281;54.406;18.556;2023-06-22T03:46:31;11.50;;;10.00;;
20245;SDS011;10281;54.406;18.556;2023-06-22T03:48:57;14.83;;;9.57;;
20245;SDS011;10281;54.406;18.556;2023-06-22T03:51:24;10.83;;;8.93;;
20245;SDS011;10281;54.406;18.556;2023-06-22T03:53:50;11.83;;;9.23;;
20245;SDS011;10281;54.406;18.556;2023-06-22T03:56:17;13.00;;;9.43;;
20245;SDS011;10281;54.406;18.556;2023-06-22T03:58:46;14.50;;;9.57;;
20245;SDS011;10281;54.406;18.556;2023-06-22T04:01:12;12.33;;;8.90;;
20245;SDS011;10281;54.406;18.556;2023-06-22T04:03:39;12.30;;;9.97;;
20245;SDS011;10281;54.406;18.556;2023-06-22T04:06:07;11.60;;;9.37;;
20245;SDS011;10281;54.406;18.556;2023-06-22T04:08:34;10.47;;;9.33;;
20245;SDS011;10281;54.406;18.556;2023-06-22T04:11:00;14.13;;;9.80;;
20245;SDS011;10281;54.406;18.556;2023-06-22T04:13:27;13.17;;;8.90;;
20245;SDS011;10281;54.406;18.556;2023-06-22T04:15:54;10.73;;;9.00;;
20245;SDS011;10281;54.406;18.556;2023-06-22T04:18:20;15.00;;;9.50;;
20245;SDS011;10281;54.406;18.556;2023-06-22T04:20:47;10.10;;;8.93;;
20245;SDS011;10281;54.406;18.556;2023-06-22T04:23:14;11.77;;;9.30;;
20245;SDS011;10281;54.406;18.556;2023-06-22T04:25:40;10.10;;;8.80;;
20245;SDS011;10281;54.406;18.556;2023-06-22T04:28:07;11.27;;;8.90;;
20245;SDS011;10281;54.406;18.556;2023-06-22T04:30:36;14.27;;;8.77;;
20245;SDS011;10281;54.406;18.556;2023-06-22T04:33:04;10.67;;;8.10;;
20245;SDS011;10281;54.406;18.556;2023-06-22T04:35:31;8.87;;;7.93;;
20245;SDS011;10281;54.406;18.556;2023-06-22T04:37:58;10.63;;;8.03;;
20245;SDS011;10281;54.406;18.556;2023-06-22T04:40:24;9.03;;;8.13;;
20245;SDS011;10281;54.406;18.556;2023-06-22T04:42:51;10.03;;;8.27;;
20245;SDS011;10281;54.406;18.556;2023-06-22T04:45:19;11.80;;;8.50;;
20245;SDS011;10281;54.406;18.556;2023-06-22T04:47:46;12.47;;;7.97;;
20245;SDS011;10281;54.406;18.556;2023-06-22T04:50:13;9.17;;;7.93;;
20245;SDS011;10281;54.406;18.556;2023-06-22T04:52:40;8.20;;;7.30;;
20245;SDS011;10281;54.406;18.556;2023-06-22T04:55:07;9.37;;;7.77;;
20245;SDS011;10281;54.406;18.556;2023-06-22T04:57:34;11.50;;;7.50;;
20245;SDS011;10281;54.406;18.556;2023-06-22T05:00:01;11.57;;;7.97;;
20245;SDS011;10281;54.406;18.556;2023-06-22T05:02:44;10.50;;;7.87;;
20245;SDS011;10281;54.406;18.556;2023-06-22T05:05:12;8.03;;;6.93;;
20245;SDS011;10281;54.406;18.556;2023-06-22T05:07:41;8.37;;;6.80;;
20245;SDS011;10281;54.406;18.556;2023-06-22T05:10:09;10.30;;;7.10;;
20245;SDS011;10281;54.406;18.556;2023-06-22T05:12:38;8.73;;;6.80;;
20245;SDS011;10281;54.406;18.556;2023-06-22T05:15:06;10.07;;;6.80;;
20245;SDS011;10281;54.406;18.556;2023-06-22T05:17:34;6.97;;;5.90;;
20245;SDS011;10281;54.406;18.556;2023-06-22T05:20:01;7.43;;;5.80;;
20245;SDS011;10281;54.406;18.556;2023-06-22T05:22:30;8.90;;;6.30;;
20245;SDS011;10281;54.406;18.556;2023-06-22T05:24:57;7.20;;;6.00;;
20245;SDS011;10281;54.406;18.556;2023-06-22T05:27:23;7.00;;;5.90;;
20245;SDS011;10281;54.406;18.556;2023-06-22T05:29:50;12.90;;;5.47;;
20245;SDS011;10281;54.406;18.556;2023-06-22T05:32:16;6.90;;;5.27;;
20245;SDS011;10281;54.406;18.556;2023-06-22T05:34:44;9.23;;;5.20;;
20245;SDS011;10281;54.406;18.556;2023-06-22T05:37:11;6.00;;;4.70;;
20245;SDS011;10281;54.406;18.556;2023-06-22T05:39:38;9.67;;;5.17;;
20245;SDS011;10281;54.406;18.556;2023-06-22T05:42:05;8.10;;;4.00;;
20245;SDS011;10281;54.406;18.556;2023-06-22T05:44:32;4.80;;;4.23;;
20245;SDS011;10281;54.406;18.556;2023-06-22T05:46:59;6.13;;;4.10;;
20245;SDS011;10281;54.406;18.556;2023-06-22T05:49:26;7.03;;;4.23;;
20245;SDS011;10281;54.406;18.556;2023-06-22T05:51:55;7.17;;;4.30;;
20245;SDS011;10281;54.406;18.556;2023-06-22T05:54:22;6.37;;;3.93;;
20245;SDS011;10281;54.406;18.556;2023-06-22T05:56:48;6.63;;;4.20;;
20245;SDS011;10281;54.406;18.556;2023-06-22T05:59:15;8.30;;;4.00;;
20245;SDS011;10281;54.406;18.556;2023-06-22T06:01:42;4.83;;;3.90;;
20245;SDS011;10281;54.406;18.556;2023-06-22T06:04:08;4.93;;;3.70;;
20245;SDS011;10281;54.406;18.556;2023-06-22T06:06:35;6.10;;;3.90;;
20245;SDS011;10281;54.406;18.556;2023-06-22T06:09:03;6.40;;;3.60;;
20245;SDS011;10281;54.406;18.556;2023-06-22T06:11:30;8.07;;;3.70;;
20245;SDS011;10281;54.406;18.556;2023-06-22T06:13:57;11.17;;;4.07;;
20245;SDS011;10281;54.406;18.556;2023-06-22T06:16:23;5.93;;;3.33;;
20245;SDS011;10281;54.406;18.556;2023-06-22T06:18:50;7.63;;;4.07;;
20245;SDS011;10281;54.406;18.556;2023-06-22T06:21:19;6.63;;;3.90;;
20245;SDS011;10281;54.406;18.556;2023-06-22T06:23:45;7.70;;;4.10;;
20245;SDS011;10281;54.406;18.556;2023-06-22T06:26:13;8.20;;;3.73;;
20245;SDS011;10281;54.406;18.556;2023-06-22T06:28:42;6.97;;;3.77;;
20245;SDS011;10281;54.406;18.556;2023-06-22T06:31:09;8.03;;;3.30;;
20245;SDS011;10281;54.406;18.556;2023-06-22T06:33:38;5.70;;;3.73;;
20245;SDS011;10281;54.406;18.556;2023-06-22T06:36:04;6.27;;;3.50;;
20245;SDS011;10281;54.406;18.556;2023-06-22T06:38:33;6.37;;;3.37;;
20245;SDS011;10281;54.406;18.556;2023-06-22T06:41:00;7.43;;;3.27;;
20245;SDS011;10281;54.406;18.556;2023-06-22T06:43:26;8.50;;;3.40;;
20245;SDS011;10281;54.406;18.556;2023-06-22T06:45:53;6.17;;;3.30;;
20245;SDS011;10281;54.406;18.556;2023-06-22T06:48:19;6.07;;;2.97;;
20245;SDS011;10281;54.406;18.556;2023-06-22T06:50:46;4.97;;;2.90;;
20245;SDS011;10281;54.406;18.556;2023-06-22T06:53:13;7.13;;;3.33;;
20245;SDS011;10281;54.406;18.556;2023-06-22T06:55:39;4.10;;;2.83;;
20245;SDS011;10281;54.406;18.556;2023-06-22T06:58:06;5.07;;;3.10;;
20245;SDS011;10281;54.406;18.556;2023-06-22T07:00:35;5.73;;;2.90;;
20245;SDS011;10281;54.406;18.556;2023-06-22T07:03:02;4.53;;;2.50;;
20245;SDS011;10281;54.406;18.556;2023-06-22T07:05:29;8.10;;;2.80;;
20245;SDS011;10281;54.406;18.556;2023-06-22T07:07:56;7.17;;;2.63;;
20245;SDS011;10281;54.406;18.556;2023-06-22T07:10:22;8.57;;;2.73;;
20245;SDS011;10281;54.406;18.556;2023-06-22T07:12:49;5.87;;;2.40;;
20245;SDS011;10281;54.406;18.556;2023-06-22T07:15:16;4.27;;;2.40;;
20245;SDS011;10281;54.406;18.556;2023-06-22T07:17:42;4.10;;;2.40;;
20245;SDS011;10281;54.406;18.556;2023-06-22T07:20:09;4.80;;;2.77;;
20245;SDS011;10281;54.406;18.556;2023-06-22T07:22:38;5.43;;;2.33;;
20245;SDS011;10281;54.406;18.556;2023-06-22T07:25:05;4.40;;;2.50;;
20245;SDS011;10281;54.406;18.556;2023-06-22T07:27:37;4.57;;;2.60;;
20245;SDS011;10281;54.406;18.556;2023-06-22T07:30:07;4.77;;;2.83;;
20245;SDS011;10281;54.406;18.556;2023-06-22T07:32:34;15.40;;;5.37;;
20245;SDS011;10281;54.406;18.556;2023-06-22T07:35:00;5.57;;;2.87;;
20245;SDS011;10281;54.406;18.556;2023-06-22T07:37:28;9.90;;;4.40;;
20245;SDS011;10281;54.406;18.556;2023-06-22T07:39:55;8.70;;;3.17;;
20245;SDS011;10281;54.406;18.556;2023-06-22T07:42:25;4.40;;;2.80;;
20245;SDS011;10281;54.406;18.556;2023-06-22T07:44:52;7.17;;;3.57;;
20245;SDS011;10281;54.406;18.556;2023-06-22T07:47:20;6.57;;;2.67;;
20245;SDS011;10281;54.406;18.556;2023-06-22T07:49:49;4.43;;;2.67;;
20245;SDS011;10281;54.406;18.556;2023-06-22T07:52:15;12.00;;;4.10;;
20245;SDS011;10281;54.406;18.556;2023-06-22T07:54:42;13.20;;;2.77;;
20245;SDS011;10281;54.406;18.556;2023-06-22T07:57:08;9.30;;;3.30;;
20245;SDS011;10281;54.406;18.556;2023-06-22T07:59:35;5.43;;;3.00;;
20245;SDS011;10281;54.406;18.556;2023-06-22T08:02:03;12.70;;;4.03;;
20245;SDS011;10281;54.406;18.556;2023-06-22T08:04:30;5.00;;;3.17;;
20245;SDS011;10281;54.406;18.556;2023-06-22T08:06:59;6.60;;;2.83;;
20245;SDS011;10281;54.406;18.556;2023-06-22T08:09:27;6.83;;;3.07;;
20245;SDS011;10281;54.406;18.556;2023-06-22T08:11:55;4.17;;;2.93;;
20245;SDS011;10281;54.406;18.556;2023-06-22T08:14:22;4.77;;;2.70;;
20245;SDS011;10281;54.406;18.556;2023-06-22T08:16:51;8.67;;;3.10;;
20245;SDS011;10281;54.406;18.556;2023-06-22T08:19:17;6.97;;;2.53;;
20245;SDS011;10281;54.406;18.556;2023-06-22T08:21:44;5.13;;;2.20;;
20245;SDS011;10281;54.406;18.556;2023-06-22T08:24:11;6.77;;;2.50;;
20245;SDS011;10281;54.406;18.556;2023-06-22T08:26:38;6.23;;;2.87;;
20245;SDS011;10281;54.406;18.556;2023-06-22T08:29:05;5.60;;;2.70;;
20245;SDS011;10281;54.406;18.556;2023-06-22T08:31:31;6.30;;;2.90;;
20245;SDS011;10281;54.406;18.556;2023-06-22T08:33:59;4.63;;;2.43;;
20245;SDS011;10281;54.406;18.556;2023-06-22T08:36:26;4.27;;;2.70;;
20245;SDS011;10281;54.406;18.556;2023-06-22T08:38:57;5.90;;;2.47;;
20245;SDS011;10281;54.406;18.556;2023-06-22T08:41:26;4.23;;;2.53;;
20245;SDS011;10281;54.406;18.556;2023-06-22T08:43:53;3.40;;;2.70;;
20245;SDS011;10281;54.406;18.556;2023-06-22T08:46:20;4.63;;;2.50;;
20245;SDS011;10281;54.406;18.556;2023-06-22T08:48:48;5.03;;;2.70;;
20245;SDS011;10281;54.406;18.556;2023-06-22T08:51:16;4.73;;;2.60;;
20245;SDS011;10281;54.406;18.556;2023-06-22T08:53:43;10.03;;;2.80;;
20245;SDS011;10281;54.406;18.556;2023-06-22T08:56:10;4.93;;;2.60;;
20245;SDS011;10281;54.406;18.556;2023-06-22T08:58:37;3.23;;;2.17;;
20245;SDS011;10281;54.406;18.556;2023-06-22T09:01:04;5.50;;;2.43;;
20245;SDS011;10281;54.406;18.556;2023-06-22T09:03:30;5.70;;;2.53;;
20245;SDS011;10281;54.406;18.556;2023-06-22T09:05:58;3.27;;;2.13;;
20245;SDS011;10281;54.406;18.556;2023-06-22T09:08:25;4.47;;;2.40;;
20245;SDS011;10281;54.406;18.556;2023-06-22T09:10:51;2.77;;;1.80;;
20245;SDS011;10281;54.406;18.556;2023-06-22T09:13:18;3.13;;;1.90;;
20245;SDS011;10281;54.406;18.556;2023-06-22T09:15:45;6.23;;;2.30;;
20245;SDS011;10281;54.406;18.556;2023-06-22T09:18:12;4.43;;;2.37;;
20245;SDS011;10281;54.406;18.556;2023-06-22T09:20:39;4.40;;;2.17;;
20245;SDS011;10281;54.406;18.556;2023-06-22T09:23:06;9.27;;;2.90;;
20245;SDS011;10281;54.406;18.556;2023-06-22T09:25:33;5.27;;;2.23;;
20245;SDS011;10281;54.406;18.556;2023-06-22T09:27:59;3.50;;;2.40;;
20245;SDS011;10281;54.406;18.556;2023-06-22T09:30:26;3.33;;;2.37;;
20245;SDS011;10281;54.406;18.556;2023-06-22T09:32:52;4.33;;;2.50;;
20245;SDS011;10281;54.406;18.556;2023-06-22T09:35:19;4.43;;;2.53;;
20245;SDS011;10281;54.406;18.556;2023-06-22T09:37:46;3.50;;;2.33;;
20245;SDS011;10281;54.406;18.556;2023-06-22T09:40:13;4.37;;;2.40;;
20245;SDS011;10281;54.406;18.556;2023-06-22T09:42:41;5.70;;;3.00;;
20245;SDS011;10281;54.406;18.556;2023-06-22T09:45:09;2.90;;;2.37;;
20245;SDS011;10281;54.406;18.556;2023-06-22T09:47:35;7.30;;;2.70;;
20245;SDS011;10281;54.406;18.556;2023-06-22T09:50:03;4.00;;;2.37;;
20245;SDS011;10281;54.406;18.556;2023-06-22T09:52:30;5.40;;;2.50;;
20245;SDS011;10281;54.406;18.556;2023-06-22T09:54:57;4.13;;;2.53;;
20245;SDS011;10281;54.406;18.556;2023-06-22T09:57:23;4.70;;;2.50;;
20245;SDS011;10281;54.406;18.556;2023-06-22T09:59:50;5.23;;;2.47;;
20245;SDS011;10281;54.406;18.556;2023-06-22T10:02:16;4.00;;;2.53;;
20245;SDS011;10281;54.406;18.556;2023-06-22T10:04:43;6.07;;;3.03;;
20245;SDS011;10281;54.406;18.556;2023-06-22T10:07:10;4.03;;;2.20;;
20245;SDS011;10281;54.406;18.556;2023-06-22T10:09:36;3.37;;;2.60;;
20245;SDS011;10281;54.406;18.556;2023-06-22T10:12:03;3.20;;;2.33;;
20245;SDS011;10281;54.406;18.556;2023-06-22T10:14:30;4.33;;;2.23;;
20245;SDS011;10281;54.406;18.556;2023-06-22T10:16:56;6.60;;;2.60;;
20245;SDS011;10281;54.406;18.556;2023-06-22T10:19:23;4.20;;;2.60;;
20245;SDS011;10281;54.406;18.556;2023-06-22T10:21:50;4.77;;;2.50;;
20245;SDS011;10281;54.406;18.556;2023-06-22T10:24:17;4.00;;;2.20;;
20245;SDS011;10281;54.406;18.556;2023-06-22T10:26:44;4.07;;;2.47;;
20245;SDS011;10281;54.406;18.556;2023-06-22T10:29:10;5.00;;;2.60;;
20245;SDS011;10281;54.406;18.556;2023-06-22T10:31:37;4.23;;;2.30;;
20245;SDS011;10281;54.406;18.556;2023-06-22T10:34:04;4.60;;;2.30;;
20245;SDS011;10281;54.406;18.556;2023-06-22T10:36:30;4.30;;;2.70;;
20245;SDS011;10281;54.406;18.556;2023-06-22T10:38:57;3.60;;;2.43;;
20245;SDS011;10281;54.406;18.556;2023-06-22T10:41:25;8.23;;;2.40;;
20245;SDS011;10281;54.406;18.556;2023-06-22T10:43:52;5.77;;;2.87;;
20245;SDS011;10281;54.406;18.556;2023-06-22T10:46:18;5.60;;;2.80;;
20245;SDS011;10281;54.406;18.556;2023-06-22T10:48:45;5.17;;;2.60;;
20245;SDS011;10281;54.406;18.556;2023-06-22T10:51:11;4.47;;;2.40;;
20245;SDS011;10281;54.406;18.556;2023-06-22T10:53:38;6.80;;;2.57;;
20245;SDS011;10281;54.406;18.556;2023-06-22T10:56:04;7.00;;;2.20;;
20245;SDS011;10281;54.406;18.556;2023-06-22T10:58:31;3.63;;;2.33;;
20245;SDS011;10281;54.406;18.556;2023-06-22T11:00:58;4.40;;;2.50;;
20245;SDS011;10281;54.406;18.556;2023-06-22T11:03:24;3.40;;;2.30;;
20245;SDS011;10281;54.406;18.556;2023-06-22T11:05:51;2.70;;;2.20;;
20245;SDS011;10281;54.406;18.556;2023-06-22T11:08:17;5.00;;;2.07;;
20245;SDS011;10281;54.406;18.556;2023-06-22T11:10:44;4.70;;;2.00;;
20245;SDS011;10281;54.406;18.556;2023-06-22T11:13:11;3.13;;;2.00;;
20245;SDS011;10281;54.406;18.556;2023-06-22T11:15:38;3.37;;;2.40;;
20245;SDS011;10281;54.406;18.556;2023-06-22T11:18:05;4.37;;;2.47;;
20245;SDS011;10281;54.406;18.556;2023-06-22T11:20:33;3.47;;;2.00;;
20245;SDS011;10281;54.406;18.556;2023-06-22T11:23:02;3.53;;;2.10;;
20245;SDS011;10281;54.406;18.556;2023-06-22T11:25:28;5.23;;;2.17;;
20245;SDS011;10281;54.406;18.556;2023-06-22T11:27:55;3.47;;;2.00;;
20245;SDS011;10281;54.406;18.556;2023-06-22T11:30:22;3.50;;;2.50;;
20245;SDS011;10281;54.406;18.556;2023-06-22T11:32:49;4.77;;;2.23;;
20245;SDS011;10281;54.406;18.556;2023-06-22T11:35:15;4.30;;;2.30;;
20245;SDS011;10281;54.406;18.556;2023-06-22T11:37:42;4.37;;;2.47;;
20245;SDS011;10281;54.406;18.556;2023-06-22T11:40:09;5.13;;;3.03;;
20245;SDS011;10281;54.406;18.556;2023-06-22T11:42:36;3.93;;;2.93;;
20245;SDS011;10281;54.406;18.556;2023-06-22T11:45:04;5.53;;;2.80;;
20245;SDS011;10281;54.406;18.556;2023-06-22T11:47:31;5.67;;;2.87;;
20245;SDS011;10281;54.406;18.556;2023-06-22T11:49:58;4.87;;;3.10;;
20245;SDS011;10281;54.406;18.556;2023-06-22T11:52:24;4.77;;;2.80;;
20245;SDS011;10281;54.406;18.556;2023-06-22T11:54:52;6.17;;;3.03;;
20245;SDS011;10281;54.406;18.556;2023-06-22T11:57:19;5.50;;;3.30;;
20245;SDS011;10281;54.406;18.556;2023-06-22T11:59:46;7.73;;;3.00;;
20245;SDS011;10281;54.406;18.556;2023-06-22T12:02:12;3.73;;;2.70;;
20245;SDS011;10281;54.406;18.556;2023-06-22T12:04:39;4.63;;;3.17;;
20245;SDS011;10281;54.406;18.556;2023-06-22T12:07:05;6.03;;;2.90;;
20245;SDS011;10281;54.406;18.556;2023-06-22T12:09:32;4.23;;;3.00;;
20245;SDS011;10281;54.406;18.556;2023-06-22T12:11:59;3.57;;;2.90;;
20245;SDS011;10281;54.406;18.556;2023-06-22T12:14:25;4.43;;;2.80;;
20245;SDS011;10281;54.406;18.556;2023-06-22T12:16:52;2.60;;;2.40;;
20245;SDS011;10281;54.406;18.556;2023-06-22T12:19:18;4.43;;;3.10;;
20245;SDS011;10281;54.406;18.556;2023-06-22T12:21:45;4.40;;;2.83;;
20245;SDS011;10281;54.406;18.556;2023-06-22T12:24:11;7.83;;;3.00;;
20245;SDS011;10281;54.406;18.556;2023-06-22T12:26:38;7.57;;;2.80;;
20245;SDS011;10281;54.406;18.556;2023-06-22T12:29:05;3.90;;;2.50;;
20245;SDS011;10281;54.406;18.556;2023-06-22T12:31:31;4.03;;;2.60;;
20245;SDS011;10281;54.406;18.556;2023-06-22T12:33:58;4.30;;;2.63;;
20245;SDS011;10281;54.406;18.556;2023-06-22T12:36:24;6.93;;;3.00;;
20245;SDS011;10281;54.406;18.556;2023-06-22T12:38:51;5.27;;;3.07;;
20245;SDS011;10281;54.406;18.556;2023-06-22T12:41:17;5.90;;;2.87;;
20245;SDS011;10281;54.406;18.556;2023-06-22T12:43:44;3.40;;;2.60;;
20245;SDS011;10281;54.406;18.556;2023-06-22T12:46:11;5.17;;;2.97;;
20245;SDS011;10281;54.406;18.556;2023-06-22T12:48:37;4.40;;;2.83;;
20245;SDS011;10281;54.406;18.556;2023-06-22T12:51:06;4.07;;;2.80;;
20245;SDS011;10281;54.406;18.556;2023-06-22T12:53:34;3.17;;;2.63;;
20245;SDS011;10281;54.406;18.556;2023-06-22T12:56:01;5.87;;;3.07;;
20245;SDS011;10281;54.406;18.556;2023-06-22T12:58:28;4.00;;;2.80;;
20245;SDS011;10281;54.406;18.556;2023-06-22T13:00:54;3.93;;;2.70;;
20245;SDS011;10281;54.406;18.556;2023-06-22T13:03:21;6.50;;;3.10;;
20245;SDS011;10281;54.406;18.556;2023-06-22T13:05:49;4.77;;;2.77;;
20245;SDS011;10281;54.406;18.556;2023-06-22T13:08:16;6.67;;;3.03;;
20245;SDS011;10281;54.406;18.556;2023-06-22T13:10:42;4.47;;;3.00;;
20245;SDS011;10281;54.406;18.556;2023-06-22T13:13:09;3.97;;;3.23;;
20245;SDS011;10281;54.406;18.556;2023-06-22T13:15:36;6.27;;;3.07;;
20245;SDS011;10281;54.406;18.556;2023-06-22T13:18:02;5.40;;;2.90;;
20245;SDS011;10281;54.406;18.556;2023-06-22T13:20:29;7.13;;;3.50;;
20245;SDS011;10281;54.406;18.556;2023-06-22T13:22:56;7.60;;;3.43;;
20245;SDS011;10281;54.406;18.556;2023-06-22T13:25:22;4.53;;;2.80;;
20245;SDS011;10281;54.406;18.556;2023-06-22T13:27:51;7.60;;;3.13;;
20245;SDS011;10281;54.406;18.556;2023-06-22T13:30:18;5.00;;;3.03;;
20245;SDS011;10281;54.406;18.556;2023-06-22T13:32:44;6.60;;;3.37;;
20245;SDS011;10281;54.406;18.556;2023-06-22T13:35:11;5.33;;;2.90;;
20245;SDS011;10281;54.406;18.556;2023-06-22T13:37:38;3.97;;;2.97;;
20245;SDS011;10281;54.406;18.556;2023-06-22T13:40:05;4.27;;;2.73;;
20245;SDS011;10281;54.406;18.556;2023-06-22T13:42:33;5.43;;;3.00;;
20245;SDS011;10281;54.406;18.556;2023-06-22T13:45:00;4.57;;;2.90;;
20245;SDS011;10281;54.406;18.556;2023-06-22T13:47:27;4.43;;;2.77;;
20245;SDS011;10281;54.406;18.556;2023-06-22T13:49:55;4.47;;;2.90;;
20245;SDS011;10281;54.406;18.556;2023-06-22T13:52:22;5.17;;;2.60;;
20245;SDS011;10281;54.406;18.556;2023-06-22T13:54:48;4.47;;;3.17;;
20245;SDS011;10281;54.406;18.556;2023-06-22T13:57:15;5.27;;;3.33;;
20245;SDS011;10281;54.406;18.556;2023-06-22T13:59:41;6.03;;;3.37;;
20245;SDS011;10281;54.406;18.556;2023-06-22T14:02:08;8.20;;;3.50;;
20245;SDS011;10281;54.406;18.556;2023-06-22T14:04:35;5.23;;;3.37;;
20245;SDS011;10281;54.406;18.556;2023-06-22T14:07:01;5.43;;;3.57;;
20245;SDS011;10281;54.406;18.556;2023-06-22T14:09:28;5.03;;;3.20;;
20245;SDS011;10281;54.406;18.556;2023-06-22T14:11:54;5.67;;;3.10;;
20245;SDS011;10281;54.406;18.556;2023-06-22T14:14:21;5.87;;;3.30;;
20245;SDS011;10281;54.406;18.556;2023-06-22T14:16:48;5.63;;;3.33;;
20245;SDS011;10281;54.406;18.556;2023-06-22T14:19:17;5.47;;;3.10;;
20245;SDS011;10281;54.406;18.556;2023-06-22T14:21:44;5.33;;;3.17;;
20245;SDS011;10281;54.406;18.556;2023-06-22T14:24:10;5.10;;;3.40;;
20245;SDS011;10281;54.406;18.556;2023-06-22T14:26:37;5.00;;;3.30;;
20245;SDS011;10281;54.406;18.556;2023-06-22T14:29:03;8.23;;;3.60;;
20245;SDS011;10281;54.406;18.556;2023-06-22T14:31:30;5.33;;;3.63;;
20245;SDS011;10281;54.406;18.556;2023-06-22T14:33:58;8.00;;;3.80;;